createdAt,value
2023-10-31T00:00:25.525Z,9.47
2023-10-31T00:02:53.822Z,9.43
2023-10-31T00:05:22.250Z,9.37
2023-10-31T00:07:50.508Z,9.36
2023-10-31T00:10:18.827Z,9.36
2023-10-31T00:12:47.046Z,9.31
2023-10-31T00:15:15.450Z,9.29
2023-10-31T00:17:44.090Z,9.31
2023-10-31T00:20:12.482Z,9.32
2023-10-31T00:22:40.725Z,9.29
2023-10-31T00:25:09.081Z,9.29
2023-10-31T00:27:37.252Z,9.30
2023-10-31T00:30:06.050Z,9.33
2023-10-31T00:32:34.293Z,9.33
2023-10-31T00:35:02.930Z,9.34
2023-10-31T00:37:31.543Z,9.35
2023-10-31T00:39:59.717Z,9.36
2023-10-31T00:42:28.184Z,9.33
2023-10-31T00:44:56.409Z,9.33
2023-10-31T00:47:24.659Z,9.31
2023-10-31T00:49:54.408Z,9.32
2023-10-31T00:52:22.649Z,9.31
2023-10-31T00:54:51.073Z,9.31
2023-10-31T00:57:19.275Z,9.31
2023-10-31T00:59:47.476Z,9.30
2023-10-31T01:02:15.757Z,9.30
2023-10-31T01:04:44.076Z,9.30
2023-10-31T01:07:13.610Z,9.32
2023-10-31T01:09:41.856Z,9.33
2023-10-31T01:12:11.556Z,9.36
2023-10-31T01:14:39.830Z,9.34
2023-10-31T01:17:08.420Z,9.33
2023-10-31T01:19:36.811Z,9.36
2023-10-31T01:22:05.244Z,9.37
2023-10-31T01:24:33.540Z,9.39
2023-10-31T01:27:01.771Z,9.36
2023-10-31T01:29:29.981Z,9.36
2023-10-31T01:32:01.318Z,9.38
2023-10-31T01:34:31.729Z,9.41
2023-10-31T01:36:59.954Z,9.42
2023-10-31T01:39:28.659Z,9.46
2023-10-31T01:41:56.854Z,9.48
2023-10-31T01:44:26.033Z,9.50
2023-10-31T01:46:54.277Z,9.50
2023-10-31T01:49:23.171Z,9.50
2023-10-31T01:51:51.570Z,9.53
2023-10-31T01:54:19.871Z,9.57
2023-10-31T01:56:52.080Z,9.57
2023-10-31T01:59:20.336Z,9.60
2023-10-31T02:01:48.938Z,9.58
2023-10-31T02:04:17.189Z,9.60
2023-10-31T02:06:45.434Z,9.58
2023-10-31T02:09:13.662Z,9.58
2023-10-31T02:11:41.844Z,9.59
2023-10-31T02:14:10.076Z,9.61
2023-10-31T02:16:38.324Z,9.63
2023-10-31T02:19:06.911Z,9.63
2023-10-31T02:21:35.565Z,9.66
2023-10-31T02:24:04.960Z,9.65
2023-10-31T02:26:34.171Z,9.64
2023-10-31T02:29:04.002Z,9.64
2023-10-31T02:31:32.531Z,9.65
2023-10-31T02:34:00.745Z,9.67
2023-10-31T02:36:29.003Z,9.65
2023-10-31T02:38:57.190Z,9.63
2023-10-31T02:41:25.366Z,9.62
2023-10-31T02:43:56.484Z,9.63
2023-10-31T02:46:24.861Z,9.63
2023-10-31T02:48:53.122Z,9.64
2023-10-31T02:51:21.700Z,9.63
2023-10-31T02:53:49.873Z,9.61
2023-10-31T02:56:18.140Z,9.62
2023-10-31T02:58:47.021Z,9.61
2023-10-31T03:01:15.335Z,9.61
2023-10-31T03:03:43.663Z,9.61
2023-10-31T03:06:11.886Z,9.62
2023-10-31T03:08:40.089Z,9.60
2023-10-31T03:11:09.280Z,9.59
2023-10-31T03:13:37.529Z,9.58
2023-10-31T03:16:05.763Z,9.59
2023-10-31T03:18:33.944Z,9.57
2023-10-31T03:21:02.409Z,9.58
2023-10-31T03:23:30.586Z,9.58
2023-10-31T03:25:58.919Z,9.60
2023-10-31T03:28:27.144Z,9.60
2023-10-31T03:30:55.439Z,9.62
2023-10-31T03:33:25.228Z,9.62
2023-10-31T03:35:53.429Z,9.63
2023-10-31T03:38:21.701Z,9.64
2023-10-31T03:40:49.974Z,9.64
2023-10-31T03:43:18.180Z,9.63
2023-10-31T03:45:47.373Z,9.64
2023-10-31T03:48:16.037Z,9.63
2023-10-31T03:50:44.651Z,9.63
2023-10-31T03:53:12.846Z,9.62
2023-10-31T03:55:41.110Z,9.62
2023-10-31T03:58:09.355Z,9.64
2023-10-31T04:00:37.641Z,9.63
2023-10-31T04:03:05.929Z,9.61
2023-10-31T04:05:34.140Z,9.60
2023-10-31T04:08:02.590Z,9.59
2023-10-31T04:10:30.785Z,9.58
2023-10-31T04:12:58.996Z,9.56
2023-10-31T04:15:27.163Z,9.54
2023-10-31T04:17:55.439Z,9.53
2023-10-31T04:20:23.792Z,9.52
2023-10-31T04:22:52.096Z,9.48
2023-10-31T04:25:20.423Z,9.45
2023-10-31T04:27:48.603Z,9.45
2023-10-31T04:30:17.377Z,9.43
2023-10-31T04:32:45.715Z,9.42
2023-10-31T04:35:14.047Z,9.41
2023-10-31T04:37:42.356Z,9.41
2023-10-31T04:40:11.593Z,9.40
2023-10-31T04:42:42.067Z,9.39
2023-10-31T04:45:10.784Z,9.39
2023-10-31T04:47:39.111Z,9.40
2023-10-31T04:50:07.665Z,9.41
2023-10-31T04:52:35.921Z,9.42
2023-10-31T04:55:04.438Z,9.42
2023-10-31T04:57:32.974Z,9.39
2023-10-31T05:00:01.273Z,9.36
2023-10-31T05:02:30.020Z,9.32
2023-10-31T05:04:59.428Z,9.32
2023-10-31T05:07:27.681Z,9.32
2023-10-31T05:09:55.841Z,9.31
2023-10-31T05:12:23.993Z,9.29
2023-10-31T05:14:52.199Z,9.28
2023-10-31T05:17:21.110Z,9.24
2023-10-31T05:19:50.398Z,9.26
2023-10-31T05:22:18.602Z,9.24
2023-10-31T05:24:46.805Z,9.25
2023-10-31T05:27:15.065Z,9.20
2023-10-31T05:29:43.401Z,9.19
2023-10-31T05:32:11.621Z,9.19
2023-10-31T05:34:39.858Z,9.17
2023-10-31T05:37:08.149Z,9.15
2023-10-31T05:39:38.082Z,9.13
2023-10-31T05:42:06.299Z,9.12
2023-10-31T05:44:34.489Z,9.12
2023-10-31T05:47:02.747Z,9.10
2023-10-31T05:49:31.507Z,9.07
2023-10-31T05:51:59.774Z,9.10
2023-10-31T05:54:27.987Z,9.07
2023-10-31T05:56:56.203Z,9.08
2023-10-31T05:59:24.439Z,9.07
2023-10-31T06:01:52.744Z,9.06
2023-10-31T06:04:21.020Z,9.03
2023-10-31T06:06:49.184Z,9.04
2023-10-31T06:09:17.428Z,9.04
2023-10-31T06:11:45.989Z,9.05
2023-10-31T06:14:14.302Z,9.05
2023-10-31T06:16:43.551Z,9.04
2023-10-31T06:19:12.455Z,9.05
2023-10-31T06:21:41.217Z,9.03
2023-10-31T06:24:09.808Z,9.01
2023-10-31T06:26:38.093Z,9.00
2023-10-31T06:29:27.389Z,9.00
2023-10-31T06:31:54.536Z,8.98
2023-10-31T06:34:22.829Z,9.00
2023-10-31T06:36:51.124Z,9.01
2023-10-31T06:39:19.452Z,9.01
2023-10-31T06:41:47.624Z,9.01
2023-10-31T06:44:15.849Z,9.03
2023-10-31T06:46:44.205Z,9.02
2023-10-31T06:49:12.469Z,9.02
2023-10-31T06:51:40.768Z,8.99
2023-10-31T06:54:09.077Z,9.00
2023-10-31T06:56:37.326Z,9.01
2023-10-31T06:59:06.706Z,9.05
2023-10-31T07:01:35.003Z,9.06
2023-10-31T07:04:03.279Z,9.06
2023-10-31T07:06:31.488Z,9.07
2023-10-31T07:09:01.647Z,9.05
2023-10-31T07:11:33.504Z,9.05
2023-10-31T07:14:03.747Z,9.06
2023-10-31T07:16:34.767Z,9.07
2023-10-31T07:19:02.966Z,9.09
2023-10-31T07:21:31.194Z,9.12
2023-10-31T07:23:59.427Z,9.16
2023-10-31T07:26:28.802Z,9.26
2023-10-31T07:28:57.164Z,9.35
2023-10-31T07:31:25.361Z,9.45
2023-10-31T07:33:53.618Z,9.54
2023-10-31T07:36:21.830Z,9.55
2023-10-31T07:38:50.229Z,9.56
2023-10-31T07:41:18.534Z,9.54
2023-10-31T07:43:46.782Z,9.50
2023-10-31T07:46:15.065Z,9.47
2023-10-31T07:48:43.345Z,9.48
2023-10-31T07:51:11.568Z,9.49
2023-10-31T07:53:39.748Z,9.57
2023-10-31T07:56:17.194Z,9.63
2023-10-31T07:58:45.474Z,9.72
2023-10-31T08:01:13.987Z,9.75
2023-10-31T08:03:42.284Z,9.79
2023-10-31T08:06:10.464Z,9.83
2023-10-31T08:08:38.627Z,9.82
2023-10-31T08:11:10.845Z,9.78
2023-10-31T08:13:39.709Z,9.76
2023-10-31T08:16:08.972Z,9.70
2023-10-31T08:18:37.691Z,9.70
2023-10-31T08:21:06.185Z,9.77
2023-10-31T08:23:35.098Z,9.89
2023-10-31T08:26:03.367Z,10.02
2023-10-31T08:28:32.037Z,9.97
2023-10-31T08:31:00.327Z,9.96
2023-10-31T08:33:28.645Z,9.99
2023-10-31T08:35:56.937Z,10.09
2023-10-31T08:38:29.753Z,10.17
2023-10-31T08:41:01.059Z,10.31
2023-10-31T08:43:28.953Z,10.46
2023-10-31T08:45:57.107Z,10.60
2023-10-31T08:48:26.059Z,10.69
2023-10-31T08:50:54.321Z,10.78
2023-10-31T08:53:22.624Z,10.90
2023-10-31T08:55:50.890Z,11.10
2023-10-31T08:58:19.640Z,11.14
2023-10-31T09:00:47.955Z,11.13
2023-10-31T09:03:16.326Z,11.17
2023-10-31T09:05:45.391Z,11.12
2023-10-31T09:08:13.413Z,11.00
2023-10-31T09:10:43.893Z,11.03
2023-10-31T09:13:12.267Z,11.99
2023-10-31T09:15:40.657Z,12.92
2023-10-31T09:18:09.089Z,13.29
2023-10-31T09:20:37.400Z,12.45
2023-10-31T09:23:06.172Z,12.02
2023-10-31T09:25:34.388Z,11.75
2023-10-31T09:28:02.958Z,11.60
2023-10-31T09:30:31.201Z,11.57
2023-10-31T09:33:00.201Z,11.65
2023-10-31T09:35:28.686Z,11.72
2023-10-31T09:37:57.749Z,11.97
2023-10-31T09:40:25.984Z,12.12
2023-10-31T09:42:54.221Z,12.74
2023-10-31T09:45:22.528Z,14.00
2023-10-31T09:47:50.792Z,14.75
2023-10-31T09:50:19.124Z,14.00
2023-10-31T09:52:48.353Z,13.07
2023-10-31T09:55:17.244Z,13.07
2023-10-31T09:57:45.535Z,13.22
2023-10-31T10:00:14.065Z,14.03
2023-10-31T10:02:42.754Z,13.82
2023-10-31T10:05:12.983Z,16.97
2023-10-31T10:07:45.152Z,18.50
2023-10-31T10:10:14.350Z,17.17
2023-10-31T10:12:45.845Z,16.49
2023-10-31T10:15:14.101Z,17.38
2023-10-31T10:17:51.510Z,16.98
2023-10-31T10:20:20.011Z,17.56
2023-10-31T10:22:48.508Z,16.85
2023-10-31T10:25:20.078Z,14.90
2023-10-31T10:27:48.920Z,13.81
2023-10-31T10:30:18.076Z,13.69
2023-10-31T10:32:46.361Z,13.56
2023-10-31T10:35:16.592Z,16.90
2023-10-31T10:37:48.008Z,19.85
2023-10-31T10:40:18.128Z,20.70
2023-10-31T10:42:52.326Z,20.30
2023-10-31T10:45:22.163Z,18.99
2023-10-31T10:47:52.808Z,17.52
2023-10-31T10:50:23.255Z,16.99
2023-10-31T10:53:02.333Z,16.32
2023-10-31T10:55:36.279Z,16.06
2023-10-31T10:58:13.680Z,16.46
2023-10-31T11:00:42.893Z,15.86
2023-10-31T11:03:12.112Z,15.65
2023-10-31T11:05:40.508Z,15.57
2023-10-31T11:08:09.429Z,15.38
2023-10-31T11:10:38.251Z,15.29
2023-10-31T11:13:06.481Z,15.10
2023-10-31T11:15:35.263Z,14.80
2023-10-31T11:18:04.650Z,14.72
2023-10-31T11:20:33.439Z,14.79
2023-10-31T11:23:07.737Z,14.81
2023-10-31T11:25:45.037Z,14.95
2023-10-31T11:28:14.315Z,14.50
2023-10-31T11:30:44.559Z,14.22
2023-10-31T11:33:17.235Z,14.06
2023-10-31T11:35:48.413Z,13.80
2023-10-31T11:38:16.693Z,13.66
2023-10-31T11:40:50.965Z,13.56
2023-10-31T11:43:19.205Z,13.43
2023-10-31T11:45:49.283Z,13.20
2023-10-31T11:48:18.107Z,13.00
2023-10-31T11:50:45.933Z,12.89
2023-10-31T11:53:18.003Z,12.80
2023-10-31T11:55:48.439Z,12.89
2023-10-31T11:58:27.031Z,12.97
2023-10-31T12:01:04.602Z,13.00
2023-10-31T12:03:43.503Z,12.98
2023-10-31T12:06:12.530Z,12.88
2023-10-31T12:08:43.029Z,12.76
2023-10-31T12:11:17.376Z,12.69
2023-10-31T12:14:03.184Z,12.62
2023-10-31T12:16:33.165Z,12.67
2023-10-31T12:19:06.688Z,12.75
2023-10-31T12:21:49.179Z,12.81
2023-10-31T12:24:19.951Z,12.77
2023-10-31T12:26:48.573Z,12.73
2023-10-31T12:29:21.279Z,12.66
2023-10-31T12:31:53.506Z,12.51
2023-10-31T12:34:24.443Z,12.44
2023-10-31T12:36:54.732Z,12.34
2023-10-31T12:39:28.048Z,12.34
2023-10-31T12:41:58.209Z,12.37
2023-10-31T12:44:29.250Z,12.36
2023-10-31T12:46:58.268Z,12.46
2023-10-31T12:49:27.730Z,12.46
2023-10-31T12:52:06.375Z,12.59
2023-10-31T12:54:37.364Z,12.64
2023-10-31T12:57:09.524Z,12.56
2023-10-31T12:59:40.571Z,12.58
2023-10-31T13:02:09.929Z,12.54
2023-10-31T13:04:38.682Z,12.42
2023-10-31T13:07:09.384Z,12.38
2023-10-31T13:09:43.877Z,12.31
2023-10-31T13:12:12.686Z,12.28
2023-10-31T13:14:41.395Z,12.25
2023-10-31T13:17:09.695Z,12.19
2023-10-31T13:19:37.945Z,12.20
2023-10-31T13:22:06.185Z,12.17
2023-10-31T13:24:34.582Z,12.22
2023-10-31T13:27:04.266Z,12.20
2023-10-31T13:29:32.546Z,12.18
2023-10-31T13:32:00.878Z,12.16
2023-10-31T13:34:33.012Z,12.18
2023-10-31T13:37:01.421Z,12.21
2023-10-31T13:39:29.662Z,12.25
2023-10-31T13:41:58.017Z,12.19
2023-10-31T13:44:26.274Z,12.18
2023-10-31T13:46:54.553Z,12.13
2023-10-31T13:49:22.867Z,12.07
2023-10-31T13:51:51.120Z,12.01
2023-10-31T13:54:20.506Z,11.97
2023-10-31T13:56:49.248Z,11.91
2023-10-31T13:59:19.449Z,11.84
2023-10-31T14:01:48.776Z,11.73
2023-10-31T14:04:17.450Z,11.68
2023-10-31T14:06:45.812Z,11.68
2023-10-31T14:09:14.179Z,11.73
2023-10-31T14:11:43.121Z,11.79
2023-10-31T14:14:11.878Z,11.84
2023-10-31T14:16:40.478Z,11.84
2023-10-31T14:19:09.603Z,11.88
2023-10-31T14:21:38.163Z,11.90
2023-10-31T14:24:11.174Z,11.91
2023-10-31T14:26:44.565Z,11.87
2023-10-31T14:29:13.439Z,11.82
2023-10-31T14:31:45.362Z,11.82
2023-10-31T14:34:13.627Z,11.82
2023-10-31T14:36:42.072Z,11.80
2023-10-31T14:39:13.091Z,11.78
2023-10-31T14:41:41.909Z,11.78
2023-10-31T14:44:10.268Z,11.77
2023-10-31T14:46:38.801Z,11.77
2023-10-31T14:49:07.112Z,11.73
2023-10-31T14:51:35.370Z,11.67
2023-10-31T14:54:03.749Z,11.60
2023-10-31T14:56:32.885Z,11.50
2023-10-31T14:59:01.180Z,11.38
2023-10-31T15:01:29.645Z,11.37
2023-10-31T15:03:58.087Z,11.29
2023-10-31T15:06:26.546Z,11.28
2023-10-31T15:08:54.798Z,11.20
2023-10-31T15:11:24.422Z,11.11
2023-10-31T15:13:52.761Z,11.08
2023-10-31T15:16:21.008Z,11.04
2023-10-31T15:18:49.389Z,11.03
2023-10-31T15:21:17.679Z,11.01
2023-10-31T15:23:45.874Z,10.97
2023-10-31T15:26:14.831Z,10.94
2023-10-31T15:28:44.115Z,10.88
2023-10-31T15:31:13.017Z,10.81
2023-10-31T15:33:44.398Z,10.80
2023-10-31T15:36:13.833Z,10.77
2023-10-31T15:38:42.641Z,10.79
2023-10-31T15:41:17.022Z,10.76
2023-10-31T15:43:47.306Z,10.72
2023-10-31T15:46:15.783Z,10.71
2023-10-31T15:48:44.119Z,10.72
2023-10-31T15:51:12.553Z,10.73
2023-10-31T15:53:40.876Z,10.74
2023-10-31T15:56:11.231Z,10.78
2023-10-31T15:58:39.959Z,10.83
2023-10-31T16:01:08.364Z,10.79
2023-10-31T16:03:36.860Z,10.76
2023-10-31T16:06:05.791Z,10.72
2023-10-31T16:08:34.199Z,10.74
2023-10-31T16:11:02.454Z,10.67
2023-10-31T16:13:30.688Z,10.64
2023-10-31T16:15:59.059Z,10.62
2023-10-31T16:18:27.420Z,10.60
2023-10-31T16:20:55.651Z,10.59
2023-10-31T16:23:24.870Z,10.60
2023-10-31T16:25:53.099Z,10.55
2023-10-31T16:28:21.284Z,10.56
2023-10-31T16:30:49.550Z,10.58
2023-10-31T16:33:18.039Z,10.55
2023-10-31T16:35:46.390Z,10.52
2023-10-31T16:38:14.695Z,10.55
2023-10-31T16:40:42.881Z,10.56
2023-10-31T16:43:11.057Z,10.55
2023-10-31T16:45:39.238Z,10.56
2023-10-31T16:48:07.730Z,10.56
2023-10-31T16:50:36.014Z,10.56
2023-10-31T16:53:07.508Z,10.60
2023-10-31T16:55:35.837Z,10.61
2023-10-31T16:58:05.946Z,10.61
2023-10-31T17:00:34.156Z,10.54
2023-10-31T17:03:02.928Z,10.54
2023-10-31T17:05:31.277Z,10.53
2023-10-31T17:07:59.568Z,10.51
2023-10-31T17:10:27.778Z,10.55
2023-10-31T17:13:01.760Z,10.56
2023-10-31T17:15:29.937Z,10.52
2023-10-31T17:17:58.392Z,10.48
2023-10-31T17:20:27.231Z,10.50
2023-10-31T17:22:55.336Z,10.46
2023-10-31T17:25:23.511Z,10.42
2023-10-31T17:27:51.781Z,10.40
2023-10-31T17:30:20.074Z,10.37
2023-10-31T17:32:48.427Z,10.39
2023-10-31T17:35:18.039Z,10.43
2023-10-31T17:37:47.009Z,10.41
2023-10-31T17:40:15.410Z,10.42
2023-10-31T17:42:43.575Z,10.39
2023-10-31T17:45:12.881Z,10.40
2023-10-31T17:47:41.236Z,10.37
2023-10-31T17:50:10.658Z,10.36
2023-10-31T17:52:39.174Z,10.35
2023-10-31T17:55:07.570Z,10.41
2023-10-31T17:57:36.868Z,10.39
2023-10-31T18:00:05.545Z,10.39
2023-10-31T18:02:40.365Z,10.39
2023-10-31T18:05:10.291Z,10.36
2023-10-31T18:07:39.461Z,10.36
2023-10-31T18:10:08.152Z,10.39
2023-10-31T18:12:36.888Z,10.35
2023-10-31T18:15:05.506Z,10.30
2023-10-31T18:17:34.689Z,10.27
2023-10-31T18:20:03.125Z,10.26
2023-10-31T18:22:31.301Z,10.29
2023-10-31T18:24:59.512Z,10.29
2023-10-31T18:27:27.754Z,10.26
2023-10-31T18:29:56.692Z,10.25
2023-10-31T18:32:24.645Z,10.20
2023-10-31T18:34:53.351Z,10.17
2023-10-31T18:37:21.596Z,10.13
2023-10-31T18:39:49.835Z,10.10
2023-10-31T18:42:19.430Z,10.08
2023-10-31T18:44:52.520Z,10.03
2023-10-31T18:47:24.882Z,9.99
2023-10-31T18:49:53.283Z,9.94
2023-10-31T18:52:21.532Z,9.95
2023-10-31T18:54:49.727Z,9.94
2023-10-31T18:57:17.970Z,9.93
2023-10-31T18:59:46.270Z,9.95
2023-10-31T19:02:15.532Z,9.99
2023-10-31T19:04:44.016Z,10.01
2023-10-31T19:07:12.413Z,10.02
2023-10-31T19:09:40.655Z,10.04
2023-10-31T19:12:09.272Z,10.07
2023-10-31T19:14:37.556Z,10.08
2023-10-31T19:17:05.914Z,10.10
2023-10-31T19:19:34.141Z,10.12
2023-10-31T19:22:02.540Z,10.08
2023-10-31T19:24:30.774Z,10.07
2023-10-31T19:26:59.024Z,10.02
2023-10-31T19:29:27.584Z,9.98
2023-10-31T19:31:55.874Z,9.96
2023-10-31T19:34:24.200Z,9.99
2023-10-31T19:36:52.521Z,10.03
2023-10-31T19:39:22.476Z,10.07
2023-10-31T19:41:50.747Z,10.09
2023-10-31T19:44:19.425Z,10.13
2023-10-31T19:46:49.834Z,10.16
2023-10-31T19:49:18.164Z,10.17
2023-10-31T19:51:46.377Z,10.19
2023-10-31T19:54:14.607Z,10.25
2023-10-31T19:56:45.973Z,10.28
2023-10-31T19:59:15.847Z,10.31
2023-10-31T20:01:44.197Z,10.32
2023-10-31T20:04:12.862Z,10.32
2023-10-31T20:06:42.788Z,10.34
2023-10-31T20:09:10.975Z,10.34
2023-10-31T20:11:39.309Z,10.33
2023-10-31T20:14:07.695Z,10.34
2023-10-31T20:16:35.976Z,10.35
2023-10-31T20:19:06.254Z,10.34
2023-10-31T20:21:34.512Z,10.37
2023-10-31T20:24:03.478Z,10.41
2023-10-31T20:26:31.538Z,10.42
2023-10-31T20:28:59.763Z,10.43
2023-10-31T20:31:27.937Z,10.46
2023-10-31T20:33:56.347Z,10.46
2023-10-31T20:36:24.665Z,10.45
2023-10-31T20:38:52.864Z,10.46
2023-10-31T20:41:22.515Z,10.46
2023-10-31T20:43:50.813Z,10.47
2023-10-31T20:46:19.079Z,10.43
2023-10-31T20:48:47.359Z,10.39
2023-10-31T20:51:15.593Z,10.37
2023-10-31T20:53:44.076Z,10.35
2023-10-31T20:56:12.333Z,10.34
2023-10-31T20:58:40.594Z,10.35
2023-10-31T21:01:10.041Z,10.35
2023-10-31T21:03:38.493Z,10.32
2023-10-31T21:06:07.029Z,10.30
2023-10-31T21:08:35.374Z,10.28
2023-10-31T21:11:03.750Z,10.30
2023-10-31T21:13:32.073Z,10.29
2023-10-31T21:16:00.683Z,10.27
2023-10-31T21:18:29.010Z,10.25
2023-10-31T21:20:57.211Z,10.27
2023-10-31T21:23:25.514Z,10.23
2023-10-31T21:25:55.637Z,10.23
2023-10-31T21:28:23.850Z,10.15
2023-10-31T21:30:54.099Z,10.16
2023-10-31T21:33:24.703Z,10.10
2023-10-31T21:35:54.165Z,10.10
2023-10-31T21:38:22.433Z,10.12
2023-10-31T21:40:50.722Z,10.09
2023-10-31T21:43:18.965Z,10.11
2023-10-31T21:45:47.270Z,10.07
2023-10-31T21:48:15.566Z,10.07
2023-10-31T21:50:43.830Z,10.01
2023-10-31T21:53:12.081Z,10.04
2023-10-31T21:55:40.452Z,10.03
2023-10-31T21:58:08.704Z,10.07
2023-10-31T22:00:36.967Z,10.03
2023-10-31T22:03:05.463Z,9.99
2023-10-31T22:05:34.018Z,10.00
2023-10-31T22:08:02.231Z,9.98
2023-10-31T22:10:30.482Z,10.00
2023-10-31T22:12:58.659Z,10.02
2023-10-31T22:15:26.844Z,10.05
2023-10-31T22:17:55.041Z,10.08
2023-10-31T22:20:23.239Z,10.09
2023-10-31T22:22:51.735Z,10.10
2023-10-31T22:25:20.005Z,10.11
2023-10-31T22:27:48.947Z,10.12
2023-10-31T22:30:17.897Z,10.12
2023-10-31T22:32:45.807Z,10.08
2023-10-31T22:35:14.130Z,10.09
2023-10-31T22:37:42.324Z,10.13
2023-10-31T22:40:11.008Z,10.23
2023-10-31T22:42:39.193Z,10.24
2023-10-31T22:45:08.068Z,10.25
2023-10-31T22:47:40.498Z,10.28
2023-10-31T22:50:11.756Z,10.31
2023-10-31T22:52:40.047Z,10.34
2023-10-31T22:55:09.355Z,10.37
2023-10-31T22:57:37.618Z,10.39
2023-10-31T23:00:11.637Z,10.42
2023-10-31T23:02:41.353Z,10.45
2023-10-31T23:05:12.031Z,10.48
2023-10-31T23:07:40.514Z,10.47
2023-10-31T23:10:08.986Z,10.48
2023-10-31T23:12:37.303Z,10.48
2023-10-31T23:15:12.426Z,10.48
2023-10-31T23:17:42.571Z,10.48
2023-10-31T23:20:12.915Z,10.50
2023-10-31T23:22:42.947Z,10.50
2023-10-31T23:25:11.941Z,10.50
2023-10-31T23:27:43.006Z,10.52
2023-10-31T23:30:11.684Z,10.53
2023-10-31T23:32:40.060Z,10.55
2023-10-31T23:35:08.803Z,10.55
2023-10-31T23:37:37.182Z,10.55
2023-10-31T23:40:06.201Z,10.55
2023-10-31T23:42:34.072Z,10.52
2023-10-31T23:45:02.325Z,10.49
2023-10-31T23:47:31.018Z,10.44
2023-10-31T23:49:59.691Z,10.40
2023-10-31T23:52:29.045Z,10.40
2023-10-31T23:54:57.363Z,10.39
2023-10-31T23:57:25.589Z,10.38
2023-10-31T23:59:53.827Z,10.39
